Time;durP1;ratioP1;P1;durP2;ratioP2;P2;SDS_P1;SDS_P2;PMS_P1;PMS_P2;Temp;Humidity;BMP_temperature;BMP_pressure;BME280_temperature;BME280_humidity;BME280_pressure;Samples;Min_cycle;Max_cycle;Signal;HPM_P1;HPM_P2
2021/11/21 00:00:17;;;;;;;0.30;0.30;;;;;;;8.14;85.22;101616.69;5079022;28;20077;-66
2021/11/21 00:02:43;;;;;;;0.20;0.20;;;;;;;8.15;84.97;101619.38;5080821;28;20394;-66
2021/11/21 00:05:08;;;;;;;0.20;0.20;;;;;;;8.15;85.14;101619.38;5080096;28;20079;-65
2021/11/21 00:07:33;;;;;;;0.00;0.00;;;;;;;8.15;84.94;101611.53;5080759;28;20024;-66
2021/11/21 00:09:59;;;;;;;0.20;0.20;;;;;;;8.14;85.11;101614.97;5079463;28;20150;-66
2021/11/21 00:12:24;;;;;;;0.10;0.10;;;;;;;8.15;85.15;101613.28;5080542;28;20039;-66
2021/11/21 00:14:50;;;;;;;0.10;0.10;;;;;;;8.14;84.55;101609.75;5062969;28;20028;-66
2021/11/21 00:17:15;;;;;;;0.20;0.20;;;;;;;8.15;84.94;101608.06;5080247;28;20407;-66
2021/11/21 00:19:41;;;;;;;0.10;0.10;;;;;;;8.15;85.26;101602.84;5062455;28;20125;-66
2021/11/21 00:22:07;;;;;;;0.10;0.10;;;;;;;8.15;84.94;101595.88;5062671;28;20016;-66
2021/11/21 00:24:32;;;;;;;0.10;0.10;;;;;;;8.15;85.15;101595.00;5079552;28;20305;-67
2021/11/21 00:26:58;;;;;;;0.10;0.10;;;;;;;8.16;84.66;101583.75;5080076;28;20024;-66
2021/11/21 00:29:23;;;;;;;0.33;0.33;;;;;;;8.18;84.88;101579.50;5062763;28;20047;-66
2021/11/21 00:31:49;;;;;;;0.20;0.20;;;;;;;8.20;84.75;101580.47;5080155;28;20094;-66
2021/11/21 00:34:14;;;;;;;0.10;0.10;;;;;;;8.20;84.03;101580.47;5079619;28;20029;-66
2021/11/21 00:36:39;;;;;;;0.10;0.10;;;;;;;8.21;83.85;101582.25;5062755;28;20035;-66
2021/11/21 00:39:05;;;;;;;0.27;0.27;;;;;;;8.23;83.81;101578.91;5078831;28;20040;-67
2021/11/21 00:41:31;;;;;;;0.13;0.13;;;;;;;8.24;84.01;101579.81;5079791;28;20409;-65
2021/11/21 00:43:56;;;;;;;0.20;0.20;;;;;;;8.26;84.17;101578.16;5061962;28;20024;-65
2021/11/21 00:46:23;;;;;;;0.10;0.10;;;;;;;8.25;84.57;101581.59;5080003;28;20028;-66
2021/11/21 00:48:49;;;;;;;0.20;0.20;;;;;;;8.24;83.85;101577.19;5079388;28;20260;-66
2021/11/21 00:51:15;;;;;;;0.30;0.30;;;;;;;8.24;84.47;101572.84;5079063;28;20043;-65
2021/11/21 00:53:43;;;;;;;0.10;0.10;;;;;;;8.24;84.66;101580.69;5079609;28;20091;-66
2021/11/21 00:56:09;;;;;;;0.20;0.20;;;;;;;8.24;84.45;101578.06;5061753;28;20047;-66
2021/11/21 00:58:35;;;;;;;0.20;0.20;;;;;;;8.24;84.66;101580.69;5079742;28;20028;-66
2021/11/21 01:01:03;;;;;;;0.20;0.20;;;;;;;8.24;84.77;101570.25;5079239;28;20387;-65
2021/11/21 01:03:29;;;;;;;0.10;0.10;;;;;;;8.30;84.50;101574.91;5079379;28;20098;-66
2021/11/21 01:05:55;;;;;;;0.20;0.20;;;;;;;8.36;84.61;101563.88;5078867;28;20020;-65
2021/11/21 01:08:21;;;;;;;0.20;0.20;;;;;;;8.38;84.68;101557.00;5079137;28;20118;-65
2021/11/21 01:10:50;;;;;;;0.10;0.10;;;;;;;8.41;84.65;101557.13;5078993;28;20450;-66
2021/11/21 01:13:15;;;;;;;0.27;0.27;;;;;;;8.45;84.55;101558.19;5079374;28;20055;-67
2021/11/21 01:15:40;;;;;;;0.20;0.20;;;;;;;8.49;84.54;101563.66;5061995;28;20128;-66
2021/11/21 01:18:07;;;;;;;0.10;0.10;;;;;;;8.55;84.56;101556.94;5078827;28;20078;-66
2021/11/21 01:20:34;;;;;;;0.10;0.10;;;;;;;8.60;84.46;101552.84;5078465;28;20078;-66
2021/11/21 01:23:00;;;;;;;0.20;0.20;;;;;;;8.60;84.50;101548.50;5061590;28;20059;-67
2021/11/21 01:25:26;;;;;;;0.10;0.10;;;;;;;8.60;84.72;101545.03;5078862;28;20048;-66
2021/11/21 01:27:52;;;;;;;0.20;0.20;;;;;;;8.59;85.05;101535.41;5061558;28;20025;-65
2021/11/21 01:30:21;;;;;;;0.10;0.10;;;;;;;8.61;85.37;101536.38;5078813;28;20111;-67
2021/11/21 01:32:46;;;;;;;0.00;0.00;;;;;;;8.62;85.84;101536.44;5079271;28;20021;-67
2021/11/21 01:35:12;;;;;;;0.10;0.10;;;;;;;8.60;85.83;101532.84;5077996;28;20457;-67
2021/11/21 01:37:38;;;;;;;0.10;0.10;;;;;;;8.60;86.12;101534.56;5060928;28;20044;-68
2021/11/21 01:40:06;;;;;;;0.10;0.10;;;;;;;8.58;86.31;101531.00;5078375;28;20272;-67
2021/11/21 01:42:31;;;;;;;0.10;0.10;;;;;;;8.57;86.42;101531.81;5078657;28;20302;-69
2021/11/21 01:44:56;;;;;;;0.13;0.13;;;;;;;8.58;86.48;101534.50;5060969;28;20107;-67
2021/11/21 01:47:22;;;;;;;0.10;0.10;;;;;;;8.58;86.70;101526.66;5061152;28;20024;-67
2021/11/21 01:49:47;;;;;;;0.10;0.10;;;;;;;8.58;86.78;101524.06;5077664;28;20379;-67
2021/11/21 01:52:13;;;;;;;0.10;0.10;;;;;;;8.58;86.90;101526.66;5078222;28;20079;-67
2021/11/21 01:54:38;;;;;;;0.10;0.10;;;;;;;8.57;86.87;101517.03;5078505;28;20082;-68
2021/11/21 01:57:04;;;;;;;0.10;0.10;;;;;;;8.56;86.91;101515.25;5060791;28;20394;-67
2021/11/21 01:59:30;;;;;;;0.10;0.10;;;;;;;8.56;86.73;101512.66;5061107;28;20013;-67
2021/11/21 02:01:56;;;;;;;0.00;0.00;;;;;;;8.56;87.18;101509.13;5078365;28;20056;-68
2021/11/21 02:04:21;;;;;;;0.10;0.10;;;;;;;8.57;87.05;101505.69;5078006;28;20056;-66
2021/11/21 02:06:53;;;;;;;0.10;0.10;;;;;;;8.58;87.22;101504.91;5078331;28;20020;-68
2021/11/21 02:09:18;;;;;;;0.20;0.20;;;;;;;8.58;87.23;101505.78;5078071;28;20032;-67
2021/11/21 02:11:44;;;;;;;0.13;0.13;;;;;;;8.57;87.13;101490.94;5077902;28;20036;-67
2021/11/21 02:14:10;;;;;;;0.10;0.10;;;;;;;8.57;87.22;101493.56;5060560;28;20024;-66
2021/11/21 02:16:35;;;;;;;0.10;0.10;;;;;;;8.58;87.20;101491.84;5077976;28;20021;-68
2021/11/21 02:19:01;;;;;;;0.07;0.07;;;;;;;8.58;87.52;101489.25;5077171;28;20341;-68
2021/11/21 02:21:27;;;;;;;0.10;0.10;;;;;;;8.59;87.28;101497.13;5077728;28;20042;-67
2021/11/21 02:23:52;;;;;;;0.10;0.10;;;;;;;8.60;87.39;101487.59;5059923;28;20378;-67
2021/11/21 02:26:19;;;;;;;0.10;0.10;;;;;;;8.60;87.39;101480.63;5078074;28;20020;-67
2021/11/21 02:28:46;;;;;;;0.20;0.20;;;;;;;8.59;87.38;101473.63;5077040;28;20340;-67
2021/11/21 02:31:12;;;;;;;0.10;0.10;;;;;;;8.60;87.58;101470.19;5060276;28;20029;-68
2021/11/21 02:33:39;;;;;;;0.10;0.10;;;;;;;8.60;87.57;101472.78;5077716;28;20342;-69
2021/11/21 02:36:07;;;;;;;0.07;0.07;;;;;;;8.61;87.40;101471.97;5059682;28;20020;-68
2021/11/21 02:38:33;;;;;;;0.10;0.10;;;;;;;8.61;87.63;101466.75;5076962;28;20038;-68
2021/11/21 02:41:03;;;;;;;0.10;0.10;;;;;;;8.62;87.62;101460.72;5076879;28;20082;-68
2021/11/21 02:43:29;;;;;;;0.57;0.57;;;;;;;8.62;87.65;101460.72;5060277;28;20028;-69
2021/11/21 02:45:56;;;;;;;0.73;0.73;;;;;;;8.65;87.65;101452.13;5077005;28;20020;-69
2021/11/21 02:48:24;;;;;;;0.50;0.27;;;;;;;8.65;87.81;101455.63;5076861;28;20363;-69
2021/11/21 02:50:49;;;;;;;0.10;0.10;;;;;;;8.64;87.78;101446.03;5061725;28;20033;-68
2021/11/21 02:53:17;;;;;;;0.13;0.13;;;;;;;8.64;87.76;101435.59;5059254;28;20043;-68
2021/11/21 02:55:43;;;;;;;0.10;0.10;;;;;;;8.65;87.81;101434.75;5076974;28;20021;-69
2021/11/21 02:58:08;;;;;;;0.00;0.00;;;;;;;8.66;88.07;101436.53;5077080;28;20060;-68
2021/11/21 03:00:36;;;;;;;0.00;0.00;;;;;;;8.68;87.90;101427.88;5076824;28;20331;-69
2021/11/21 03:03:02;;;;;;;0.10;0.10;;;;;;;8.69;87.93;101432.28;5075861;28;20044;-68
2021/11/21 03:05:27;;;;;;;0.03;0.03;;;;;;;8.67;87.97;101427.00;5076753;28;20016;-67
2021/11/21 03:07:53;;;;;;;0.10;0.10;;;;;;;8.68;88.04;101426.16;5076940;28;20348;-70
2021/11/21 03:10:19;;;;;;;0.20;0.20;;;;;;;8.68;88.20;101425.25;5077345;28;20053;-69
2021/11/21 03:12:53;;;;;;;0.10;0.10;;;;;;;8.71;88.17;101426.28;5077188;28;20031;-69
2021/11/21 03:15:19;;;;;;;0.20;0.20;;;;;;;8.71;88.28;101433.25;5076716;28;20032;-69
2021/11/21 03:17:45;;;;;;;0.20;0.20;;;;;;;8.72;88.04;101424.59;5059617;28;20290;-69
2021/11/21 03:20:16;;;;;;;0.10;0.10;;;;;;;8.70;88.17;101414.06;5075659;28;20391;-68
2021/11/21 03:22:42;;;;;;;0.30;0.30;;;;;;;8.68;87.89;101426.16;5059686;28;20024;-67
2021/11/21 03:25:08;;;;;;;1.70;0.70;;;;;;;8.66;87.65;101420.00;5076800;28;20016;-68
2021/11/21 03:27:34;;;;;;;0.60;0.60;;;;;;;8.66;87.08;101413.03;5077028;28;20035;-67
2021/11/21 03:30:00;;;;;;;0.50;0.50;;;;;;;8.62;87.09;101413.75;5076448;28;20024;-67
2021/11/21 03:32:25;;;;;;;0.70;0.70;;;;;;;8.57;87.11;101420.47;5076888;28;20115;-68
2021/11/21 03:34:50;;;;;;;13.13;1.00;;;;;;;8.55;87.32;101421.19;5058826;28;20395;-69
2021/11/21 03:37:16;;;;;;;0.20;0.20;;;;;;;8.55;87.25;101423.81;5076110;28;20323;-70
2021/11/21 03:39:41;;;;;;;0.10;0.10;;;;;;;8.49;87.18;101430.53;5076821;28;20021;-69
2021/11/21 03:42:07;;;;;;;0.10;0.10;;;;;;;8.49;87.32;101434.84;5058965;28;20035;-67
2021/11/21 03:44:33;;;;;;;0.00;0.00;;;;;;;8.46;87.38;101438.19;5077029;28;20024;-67
2021/11/21 03:46:58;;;;;;;0.10;0.10;;;;;;;8.43;87.52;101435.44;5076266;28;20028;-68
2021/11/21 03:49:23;;;;;;;0.00;0.00;;;;;;;8.40;87.21;101424.84;5059070;28;20021;-66
2021/11/21 03:51:49;;;;;;;0.10;0.10;;;;;;;8.36;87.28;101429.03;5076987;28;20039;-67
2021/11/21 03:54:14;;;;;;;0.10;0.10;;;;;;;8.35;87.45;101432.47;5075962;28;20103;-68
2021/11/21 03:56:40;;;;;;;0.10;0.10;;;;;;;8.32;87.53;101434.94;5076906;28;20060;-67
2021/11/21 03:59:05;;;;;;;0.10;0.10;;;;;;;8.31;87.58;101430.56;5058757;28;20044;-68
2021/11/21 04:01:32;;;;;;;0.13;0.13;;;;;;;8.31;87.59;101434.88;5076707;28;20032;-68
2021/11/21 04:03:57;;;;;;;4.70;0.63;;;;;;;8.30;87.81;101433.06;5058360;28;20078;-67
2021/11/21 04:06:23;;;;;;;0.00;0.00;;;;;;;8.28;87.86;101425.16;5076887;28;20021;-68
2021/11/21 04:08:48;;;;;;;0.10;0.10;;;;;;;8.27;87.82;101430.34;5076640;28;20303;-67
2021/11/21 04:11:14;;;;;;;0.07;0.07;;;;;;;8.27;88.03;101423.38;5075833;28;20310;-68
2021/11/21 04:13:39;;;;;;;0.10;0.10;;;;;;;8.28;87.97;101429.50;5076741;28;20021;-68
2021/11/21 04:16:05;;;;;;;0.10;0.10;;;;;;;8.28;87.99;101426.91;5075929;28;20108;-68
2021/11/21 04:18:30;;;;;;;0.00;0.00;;;;;;;8.25;87.81;101425.94;5076672;28;20040;-68
2021/11/21 04:20:56;;;;;;;0.00;0.00;;;;;;;8.23;87.77;101430.16;5058299;28;20028;-68
2021/11/21 04:23:21;;;;;;;0.00;0.00;;;;;;;8.20;87.34;101424.81;5076499;28;20024;-68
2021/11/21 04:25:47;;;;;;;5.47;0.60;;;;;;;8.17;87.21;101427.31;5075979;28;20104;-68
2021/11/21 04:28:12;;;;;;;5.30;0.63;;;;;;;8.17;87.12;101427.31;5076150;28;20128;-68
2021/11/21 04:30:37;;;;;;;0.30;0.23;;;;;;;8.16;87.10;101435.03;5076398;28;20096;-69
2021/11/21 04:33:03;;;;;;;5.40;0.40;;;;;;;8.13;87.00;101438.41;5058826;28;20417;-68
2021/11/21 04:35:29;;;;;;;3.60;0.70;;;;;;;8.11;86.98;101435.69;5075841;28;20020;-67
2021/11/21 04:37:55;;;;;;;8.27;0.90;;;;;;;8.08;86.36;101429.44;5075707;28;20080;-67
2021/11/21 04:40:20;;;;;;;0.60;0.60;;;;;;;8.06;86.12;101436.31;5058127;28;20066;-68
2021/11/21 04:42:46;;;;;;;1.83;0.63;;;;;;;8.04;86.51;101428.41;5058521;28;20259;-69
2021/11/21 04:45:13;;;;;;;1.80;0.30;;;;;;;8.03;86.95;101437.03;5076255;28;20034;-68
2021/11/21 04:47:39;;;;;;;0.10;0.10;;;;;;;8.04;86.83;101430.13;5079887;28;20031;-68
2021/11/21 04:50:06;;;;;;;0.10;0.10;;;;;;;8.02;86.53;101426.56;5078858;28;20020;-67
2021/11/21 04:52:31;;;;;;;0.10;0.10;;;;;;;8.00;86.24;101433.41;5079533;28;20036;-69
2021/11/21 04:54:56;;;;;;;0.10;0.10;;;;;;;7.97;86.12;101432.44;5079086;28;20043;-68
2021/11/21 04:57:22;;;;;;;0.10;0.10;;;;;;;7.95;86.31;101430.56;5061969;28;20294;-68
2021/11/21 04:59:47;;;;;;;0.20;0.20;;;;;;;7.93;86.41;101430.50;5079301;28;20033;-68
2021/11/21 05:02:13;;;;;;;0.20;0.20;;;;;;;7.92;86.55;101423.47;5079130;28;20043;-69
2021/11/21 05:04:38;;;;;;;0.10;0.10;;;;;;;7.91;86.67;101424.31;5079056;28;20037;-67
2021/11/21 05:07:04;;;;;;;0.30;0.30;;;;;;;7.88;86.73;101421.56;5079522;28;20021;-68
2021/11/21 05:09:29;;;;;;;0.10;0.10;;;;;;;7.88;86.87;101421.56;5061469;28;20306;-68
2021/11/21 05:11:55;;;;;;;0.10;0.10;;;;;;;7.86;86.20;101428.44;5079227;28;20104;-68
2021/11/21 05:14:21;;;;;;;0.03;0.03;;;;;;;7.86;86.50;101431.03;5079384;28;20418;-68
2021/11/21 05:16:47;;;;;;;0.20;0.20;;;;;;;7.84;86.57;101427.44;5061908;28;20070;-69
2021/11/21 05:19:12;;;;;;;0.10;0.10;;;;;;;7.83;86.83;101423.03;5078722;28;20040;-68
2021/11/21 05:21:37;;;;;;;0.10;0.10;;;;;;;7.81;86.83;101428.19;5078682;28;20091;-68
2021/11/21 05:24:03;;;;;;;0.00;0.00;;;;;;;7.81;86.66;101423.00;5079014;28;20024;-68
2021/11/21 05:26:29;;;;;;;0.10;0.10;;;;;;;7.79;86.95;101422.00;5078958;28;20036;-69
2021/11/21 05:28:54;;;;;;;0.10;0.10;;;;;;;7.79;87.03;101423.72;5061206;28;20020;-68
2021/11/21 05:31:20;;;;;;;0.10;0.10;;;;;;;7.77;86.87;101428.84;5079154;28;20107;-67
2021/11/21 05:33:46;;;;;;;0.00;0.00;;;;;;;7.76;86.99;101427.06;5078776;28;20025;-69
2021/11/21 05:36:11;;;;;;;0.10;0.10;;;;;;;7.74;86.69;101435.63;5061318;28;20038;-68
2021/11/21 05:38:37;;;;;;;0.10;0.10;;;;;;;7.72;86.39;101419.91;5061064;28;20303;-68
2021/11/21 05:41:02;;;;;;;0.20;0.20;;;;;;;7.70;86.51;101413.72;5078767;28;20025;-68
2021/11/21 05:43:27;;;;;;;0.20;0.20;;;;;;;7.67;86.62;101419.69;5078497;28;20032;-67
2021/11/21 05:45:53;;;;;;;0.00;0.00;;;;;;;7.64;86.60;101421.22;5078400;28;20025;-67
2021/11/21 05:48:18;;;;;;;0.20;0.20;;;;;;;7.62;86.54;101428.09;5078690;28;20056;-67
2021/11/21 05:50:44;;;;;;;0.10;0.10;;;;;;;7.58;86.50;101424.44;5078456;28;20039;-67
2021/11/21 05:53:09;;;;;;;0.13;0.13;;;;;;;7.56;86.59;101428.69;5078527;28;20021;-67
2021/11/21 05:55:35;;;;;;;0.10;0.10;;;;;;;7.51;86.48;101423.25;5078135;28;20120;-67
2021/11/21 05:58:00;;;;;;;0.10;0.10;;;;;;;7.48;86.25;101420.47;5076941;28;20093;-67
2021/11/21 06:00:28;;;;;;;0.10;0.10;;;;;;;7.48;85.70;101419.59;5077724;28;20025;-66
2021/11/21 06:02:53;;;;;;;0.30;0.30;;;;;;;7.43;85.67;101422.84;5078320;28;20021;-67
2021/11/21 06:05:19;;;;;;;0.17;0.17;;;;;;;7.42;85.68;101415.84;5078192;28;20333;-67
2021/11/21 06:07:44;;;;;;;0.20;0.20;;;;;;;7.39;85.00;101410.50;5078509;28;20043;-67
2021/11/21 06:10:11;;;;;;;0.10;0.10;;;;;;;7.35;85.38;101420.69;5060518;28;20107;-67
2021/11/21 06:12:36;;;;;;;0.20;0.20;;;;;;;7.31;84.45;101424.84;5077763;28;20112;-67
2021/11/21 06:15:02;;;;;;;0.20;0.20;;;;;;;7.29;82.39;101421.28;5077646;28;20059;-66
2021/11/21 06:17:28;;;;;;;0.20;0.20;;;;;;;7.30;83.27;101417.84;5078131;28;20309;-67
2021/11/21 06:19:53;;;;;;;0.20;0.20;;;;;;;7.29;82.06;101422.16;5077259;28;20092;-67
2021/11/21 06:22:19;;;;;;;2.00;0.47;;;;;;;7.26;81.41;101423.69;5078073;28;20024;-66
2021/11/21 06:24:45;;;;;;;0.10;0.10;;;;;;;7.25;79.99;101432.34;5060519;28;20031;-67
2021/11/21 06:27:11;;;;;;;0.20;0.20;;;;;;;7.22;80.38;101433.06;5077870;28;20027;-66
2021/11/21 06:29:37;;;;;;;0.10;0.10;;;;;;;7.20;79.21;101439.91;5076951;28;20028;-69
2021/11/21 06:32:02;;;;;;;0.20;0.20;;;;;;;7.18;81.71;101435.44;5077718;28;20025;-68
2021/11/21 06:34:28;;;;;;;0.10;0.10;;;;;;;7.13;80.97;101427.38;5077241;28;20039;-69
2021/11/21 06:36:53;;;;;;;0.10;0.10;;;;;;;7.11;81.15;101429.91;5059899;28;20119;-68
2021/11/21 06:39:18;;;;;;;0.57;0.57;;;;;;;7.11;81.84;101429.03;5060186;28;20052;-68
2021/11/21 06:41:44;;;;;;;0.10;0.10;;;;;;;7.07;82.24;101430.56;5060344;28;20107;-68
2021/11/21 06:44:09;;;;;;;0.20;0.20;;;;;;;7.07;82.22;101432.28;5059763;28;20111;-67
2021/11/21 06:46:35;;;;;;;0.10;0.10;;;;;;;7.06;82.63;101436.59;5076943;28;20091;-67
2021/11/21 06:49:01;;;;;;;0.10;0.10;;;;;;;7.07;82.28;101429.66;5076699;28;20082;-67
2021/11/21 06:51:27;;;;;;;0.13;0.13;;;;;;;7.08;81.95;101434.06;5060342;28;20074;-67
2021/11/21 06:53:57;;;;;;;0.20;0.20;;;;;;;7.08;82.14;101431.44;5077181;28;20020;-67
2021/11/21 06:56:22;;;;;;;0.10;0.10;;;;;;;7.07;81.94;101435.78;5077275;28;20033;-67
2021/11/21 06:58:48;;;;;;;0.20;0.20;;;;;;;7.10;81.43;101427.25;5077141;28;20410;-68
2021/11/21 07:01:14;;;;;;;0.10;0.10;;;;;;;7.08;80.56;101434.97;5076583;28;20066;-67
2021/11/21 07:03:46;;;;;;;0.33;0.33;;;;;;;7.08;79.95;101434.97;5059460;28;20074;-67
2021/11/21 07:06:31;;;;;;;0.30;0.30;;;;;;;7.04;80.02;101443.41;5076746;28;20096;-67
2021/11/21 07:08:57;;;;;;;0.10;0.10;;;;;;;7.04;79.86;101452.97;5076384;28;20020;-67
2021/11/21 07:11:23;;;;;;;0.30;0.30;;;;;;;7.03;78.25;101456.38;5077240;28;20043;-69
2021/11/21 07:13:48;;;;;;;0.10;0.10;;;;;;;7.02;78.79;101458.06;5077196;28;20437;-66
2021/11/21 07:16:14;;;;;;;0.20;0.20;;;;;;;7.07;78.62;101458.31;5076568;28;20058;-65
2021/11/21 07:18:40;;;;;;;0.30;0.30;;;;;;;7.06;78.23;101465.25;5077417;28;20059;-65
2021/11/21 07:21:05;;;;;;;0.10;0.10;;;;;;;7.03;79.39;101462.47;5075939;28;20443;-66
2021/11/21 07:23:31;;;;;;;0.23;0.23;;;;;;;6.99;79.46;101456.19;5076989;28;20032;-66
2021/11/21 07:25:56;;;;;;;0.20;0.20;;;;;;;6.93;79.86;101455.91;5059129;28;20073;-66
2021/11/21 07:28:21;;;;;;;0.17;0.17;;;;;;;6.87;80.47;101464.25;5076901;28;20020;-65
2021/11/21 07:30:47;;;;;;;1.70;1.60;;;;;;;6.83;81.22;101461.41;5059451;28;20299;-66
2021/11/21 07:33:12;;;;;;;0.20;0.20;;;;;;;6.76;80.72;101461.88;5076901;28;20028;-66
2021/11/21 07:35:37;;;;;;;0.20;0.20;;;;;;;6.72;80.29;101466.03;5059020;28;20337;-66
2021/11/21 07:38:03;;;;;;;0.23;0.23;;;;;;;6.71;80.30;101466.84;5076423;28;20283;-66
2021/11/21 07:40:28;;;;;;;0.10;0.10;;;;;;;6.73;80.37;101468.72;5076127;28;20129;-66
2021/11/21 07:42:54;;;;;;;0.20;0.20;;;;;;;6.74;79.85;101475.72;5076184;28;20033;-65
2021/11/21 07:45:20;;;;;;;0.23;0.23;;;;;;;6.76;80.67;101475.81;5076702;28;20477;-68
2021/11/21 07:47:45;;;;;;;0.17;0.17;;;;;;;6.76;80.71;101491.44;5076893;28;20016;-67
2021/11/21 07:50:11;;;;;;;0.10;0.10;;;;;;;6.74;79.92;101496.53;5076274;28;20033;-67
2021/11/21 07:52:37;;;;;;;0.20;0.20;;;;;;;6.74;80.73;101487.84;5076897;28;20391;-69
2021/11/21 07:55:03;;;;;;;0.17;0.17;;;;;;;6.68;81.23;101488.44;5076256;28;20299;-69
2021/11/21 07:57:28;;;;;;;0.10;0.10;;;;;;;6.65;81.78;101485.63;5076553;28;20112;-68
2021/11/21 07:59:54;;;;;;;0.20;0.20;;;;;;;6.63;81.50;101479.47;5058867;28;20127;-69
2021/11/21 08:02:19;;;;;;;0.20;0.20;;;;;;;6.59;81.96;101485.28;5076750;28;20040;-68
2021/11/21 08:04:44;;;;;;;0.10;0.10;;;;;;;6.60;81.59;101485.38;5076175;28;20032;-68
2021/11/21 08:07:10;;;;;;;0.10;0.10;;;;;;;6.58;82.51;101487.00;5076387;28;20037;-68
2021/11/21 08:09:36;;;;;;;0.13;0.13;;;;;;;6.56;82.50;101487.75;5058958;28;20032;-70
2021/11/21 08:12:02;;;;;;;0.10;0.10;;;;;;;6.53;82.78;101493.66;5076273;28;20107;-67
2021/11/21 08:14:27;;;;;;;0.10;0.10;;;;;;;6.51;83.07;101494.38;5076263;28;20085;-68
2021/11/21 08:16:55;;;;;;;0.10;0.10;;;;;;;6.46;83.85;101502.84;5058646;28;20322;-69
2021/11/21 08:19:20;;;;;;;0.10;0.10;;;;;;;6.43;84.08;101500.06;5058713;28;20442;-69
2021/11/21 08:21:45;;;;;;;0.10;0.10;;;;;;;6.40;84.99;101504.19;5062326;28;20111;-66
2021/11/21 08:24:11;;;;;;;0.10;0.10;;;;;;;6.38;85.13;101500.59;5079542;28;20040;-68
2021/11/21 08:26:37;;;;;;;0.10;0.10;;;;;;;6.34;85.57;101494.34;5062914;28;20322;-68
2021/11/21 08:29:06;;;;;;;0.10;0.10;;;;;;;6.31;85.47;101505.47;5079561;28;20314;-68
2021/11/21 08:31:31;;;;;;;0.10;0.10;;;;;;;6.27;84.97;101497.41;5046226;28;20101;-68
2021/11/21 08:33:57;;;;;;;0.10;0.10;;;;;;;6.22;85.17;101491.06;5079767;28;20375;-69
2021/11/21 08:36:23;;;;;;;0.20;0.20;;;;;;;6.18;84.75;101492.59;5079655;28;20060;-69
2021/11/21 08:38:48;;;;;;;0.10;0.10;;;;;;;6.19;84.89;101491.78;5062410;28;20032;-69
2021/11/21 08:41:15;;;;;;;0.10;0.10;;;;;;;6.18;84.98;101503.00;5079407;28;20051;-68
2021/11/21 08:43:46;;;;;;;0.10;0.10;;;;;;;6.18;83.48;101497.78;5079933;28;20307;-68
2021/11/21 08:46:11;;;;;;;0.00;0.00;;;;;;;6.19;83.40;101499.59;5046233;28;20028;-68
2021/11/21 08:48:41;;;;;;;0.10;0.10;;;;;;;6.22;83.43;101493.66;5078806;28;20090;-68
2021/11/21 08:51:14;;;;;;;0.10;0.10;;;;;;;6.22;84.05;101510.16;5061752;28;20160;-68
2021/11/21 08:53:44;;;;;;;0.10;0.10;;;;;;;6.21;84.60;101489.28;5079576;28;20032;-68
2021/11/21 08:56:10;;;;;;;0.10;0.10;;;;;;;6.18;84.99;101493.47;5079613;28;20028;-67
2021/11/21 08:58:36;;;;;;;0.10;0.10;;;;;;;6.17;84.99;101502.09;5079425;28;20024;-67
2021/11/21 09:01:01;;;;;;;0.10;0.10;;;;;;;6.13;84.05;101500.13;5079207;28;20025;-68
2021/11/21 09:03:27;;;;;;;0.17;0.17;;;;;;;6.17;82.76;101501.22;5079448;28;20024;-67
2021/11/21 09:05:52;;;;;;;0.10;0.10;;;;;;;6.24;82.29;101498.16;5078189;28;20107;-68
2021/11/21 09:08:17;;;;;;;0.30;0.30;;;;;;;6.29;81.25;101495.81;5079386;28;20428;-67
2021/11/21 09:10:44;;;;;;;0.10;0.10;;;;;;;6.34;80.46;101504.75;5061907;28;20021;-68
2021/11/21 09:13:10;;;;;;;0.10;0.10;;;;;;;6.43;80.18;101499.19;5079140;28;20146;-67
2021/11/21 09:15:35;;;;;;;0.20;0.20;;;;;;;6.51;78.77;101500.50;5061695;28;20103;-67
2021/11/21 09:18:01;;;;;;;0.20;0.20;;;;;;;6.65;78.14;101509.06;5061442;28;20047;-67
2021/11/21 09:20:26;;;;;;;0.13;0.13;;;;;;;6.83;77.83;101508.25;5078751;28;20037;-67
2021/11/21 09:22:53;;;;;;;0.20;0.20;;;;;;;6.92;77.38;101505.28;5078291;28;20024;-67
2021/11/21 09:25:19;;;;;;;0.27;0.27;;;;;;;6.96;77.32;101499.41;5061712;28;20051;-66
2021/11/21 09:27:45;;;;;;;0.10;0.10;;;;;;;7.04;77.07;101498.09;5079368;28;20086;-66
2021/11/21 09:30:11;;;;;;;0.27;0.27;;;;;;;7.15;76.60;101507.41;5078425;28;20033;-66
2021/11/21 09:32:37;;;;;;;0.30;0.30;;;;;;;7.31;76.80;101510.81;5061506;28;20067;-66
2021/11/21 09:35:03;;;;;;;0.10;0.10;;;;;;;7.43;76.82;101518.38;5078138;28;20119;-67
2021/11/21 09:37:28;;;;;;;0.20;0.20;;;;;;;7.55;77.08;101525.94;5078432;28;20111;-65
2021/11/21 09:39:54;;;;;;;0.30;0.30;;;;;;;7.66;76.79;101516.06;5077840;28;20124;-66
2021/11/21 09:42:19;;;;;;;0.10;0.10;;;;;;;7.78;75.91;101516.69;5078881;28;20039;-66
2021/11/21 09:44:45;;;;;;;0.23;0.23;;;;;;;7.87;75.22;101515.34;5078531;28;20066;-66
2021/11/21 09:47:14;;;;;;;0.30;0.30;;;;;;;7.98;74.61;101522.03;5078431;28;20024;-65
2021/11/21 09:49:39;;;;;;;0.30;0.30;;;;;;;8.10;73.89;101519.13;5077919;28;20032;-65
2021/11/21 09:52:06;;;;;;;0.20;0.20;;;;;;;8.19;73.65;101522.19;5078421;28;20027;-66
2021/11/21 09:54:32;;;;;;;0.30;0.30;;;;;;;8.23;73.46;101508.44;5061244;28;20028;-65
2021/11/21 09:56:57;;;;;;;0.40;0.40;;;;;;;8.36;72.36;101519.50;5077554;28;20294;-65
2021/11/21 09:59:53;;;;;;;0.40;0.40;;;;;;;8.40;71.71;101508.38;5043950;28;20020;-65
2021/11/21 10:02:22;;;;;;;0.40;0.40;;;;;;;8.49;71.02;101514.06;5078669;28;20028;-65
2021/11/21 10:04:48;;;;;;;0.50;0.50;;;;;;;8.59;71.45;101514.53;5060703;28;20028;-65
2021/11/21 10:07:31;;;;;;;0.30;0.30;;;;;;;8.63;70.54;101512.13;5078172;28;20027;-65
2021/11/21 10:09:58;;;;;;;0.33;0.33;;;;;;;8.69;69.73;101514.13;5060280;28;20024;-65
2021/11/21 10:12:25;;;;;;;0.40;0.40;;;;;;;8.81;68.90;101519.03;5078050;28;20029;-66
2021/11/21 10:14:53;;;;;;;0.60;0.60;;;;;;;8.81;69.28;101516.41;5076816;28;20071;-65
2021/11/21 10:17:20;;;;;;;0.33;0.33;;;;;;;8.82;69.58;101519.94;5077705;28;20071;-65
2021/11/21 10:20:20;;;;;;;0.40;0.40;;;;;;;8.85;69.95;101517.44;5076629;28;20295;-65
2021/11/21 10:22:51;;;;;;;0.40;0.40;;;;;;;8.88;69.94;101515.88;5075964;28;20016;-65
2021/11/21 10:25:37;;;;;;;0.40;0.40;;;;;;;8.89;68.94;101515.03;5076638;28;20040;-66
2021/11/21 10:28:02;;;;;;;0.40;0.40;;;;;;;8.88;68.81;101514.97;5077446;28;20355;-64
2021/11/21 10:30:29;;;;;;;0.40;0.40;;;;;;;8.92;68.44;101522.13;5059876;28;20168;-65
2021/11/21 10:32:54;;;;;;;0.50;0.50;;;;;;;8.97;68.54;101514.50;5060525;28;20028;-65
2021/11/21 10:35:23;;;;;;;0.50;0.50;;;;;;;8.96;68.00;101518.81;5077020;28;20032;-66
2021/11/21 10:37:48;;;;;;;0.30;0.30;;;;;;;8.97;67.77;101520.59;5077569;28;20411;-66
2021/11/21 10:40:16;;;;;;;0.43;0.43;;;;;;;8.97;66.37;101519.72;5059846;28;20028;-69
2021/11/21 10:42:44;;;;;;;0.50;0.50;;;;;;;8.98;66.01;101514.59;5042921;28;20039;-65
2021/11/21 10:45:11;;;;;;;0.30;0.30;;;;;;;8.90;65.18;101524.66;5059402;28;20291;-65
2021/11/21 10:47:57;;;;;;;0.53;0.53;;;;;;;8.89;65.35;101519.38;5077716;28;20071;-65
2021/11/21 10:50:29;;;;;;;0.30;0.30;;;;;;;8.86;64.52;101512.31;5077239;28;20024;-66
2021/11/21 10:52:57;;;;;;;0.50;0.50;;;;;;;8.88;65.64;101517.56;5077543;28;20425;-65
2021/11/21 10:55:22;;;;;;;0.30;0.30;;;;;;;8.96;65.43;101521.44;5077454;28;20425;-66
2021/11/21 10:57:48;;;;;;;0.30;0.30;;;;;;;9.05;65.69;101514.00;5077457;28;20021;-66
2021/11/21 11:00:27;;;;;;;0.40;0.40;;;;;;;9.15;66.11;101509.22;5076932;28;20043;-66
2021/11/21 11:02:53;;;;;;;0.23;0.23;;;;;;;9.34;66.60;101506.59;5043623;28;20058;-65
2021/11/21 11:05:20;;;;;;;0.30;0.30;;;;;;;9.54;65.65;101517.03;5076674;28;20029;-66
2021/11/21 11:07:54;;;;;;;0.43;0.43;;;;;;;9.46;65.36;101526.25;5059912;28;20090;-65
2021/11/21 11:10:22;;;;;;;0.40;0.40;;;;;;;9.25;64.80;101516.66;5077109;28;20341;-67
2021/11/21 11:12:56;;;;;;;0.40;0.40;;;;;;;9.05;65.59;101524.47;5077145;28;20028;-65
2021/11/21 11:15:22;;;;;;;0.50;0.50;;;;;;;8.84;66.92;101513.94;5077317;28;20034;-65
2021/11/21 11:17:48;;;;;;;0.50;0.50;;;;;;;8.70;67.80;101521.13;5077353;28;20029;-67
2021/11/21 11:20:16;;;;;;;0.40;0.40;;;;;;;8.65;68.38;101531.34;5058959;28;20020;-67
2021/11/21 11:22:43;;;;;;;0.50;0.50;;;;;;;8.85;68.20;101515.72;5076762;28;20032;-68
2021/11/21 11:25:30;;;;;;;0.50;0.50;;;;;;;9.09;68.39;101520.28;5076894;28;20020;-68
2021/11/21 11:28:12;;;;;;;0.50;0.50;;;;;;;8.99;67.85;101518.06;5059370;28;20028;-67
2021/11/21 11:30:39;;;;;;;0.37;0.37;;;;;;;8.88;67.20;101517.56;5059709;28;20028;-67